Aviation Digital Data Service (ADDS)

Output produced by METARs form (1308 UTC 16 July 2019)
found at http://www.aviationweather.gov/metar/data/
 
TAF MHSC 1613/1719 01006KT 9999 FEW050 SCT080 QNH2986INS 
     BECMG 1621/1622 VRB12G18KT 9999 VCTS SCT050CB BKN080 QNH2989INS 
     BECMG 1702/1703 VRB06KT 8000 BR FEW050 BKN070 QNH2996INS 
     BECMG 1716/1717 34009KT 9999 NSW FEW070 QNH2994INS TX33/1620Z TN21/1711Z
       
TAF MHLC 161030Z 1612/1712 18005KT 9999 SCT026 TX32/1621Z TN23/1712Z 
     BECMG 1615/1617 05012KT 
     PROB30 1701/1703 8000 VCSH SCT026TCU SCT070 
     BECMG 1703/1705 9999 NSW SCT026 
     BECMG 1707/1709 12004KT
       
TAF MHLM 161030Z 1612/1712 21003KT 9999 SCT026 TX36/1621Z TN22/1712Z 
     BECMG 1615/1617 05008KT 
     PROB30 1700/1702 8000 VCSH SCT026TCU SCT070 
     BECMG 1703/1705 9999 NSW BKN026 
     BECMG 1707/1709 00000KT
       
TAF MHRO 161030Z 1612/1712 09020KT 9999 FEW022 TX31/1618Z TN27/1712Z
       
TAF MHTG 161030Z 1612/1712 36004KT 8000 VCSH FEW008 BKN026 TX29/1621Z TN15/1712Z

     BECMG 1613/1615 9999 NSW BKN026 
     BECMG 1616/1618 06008KT SCT030 
     BECMG 1704/1706 36003KT